Time,TemperatureF,DewpointF,PressureIn,WindDirection,WindDirectionDegrees,WindSpeedMPH,WindSpeedGustMPH,Humidity,HourlyPrecipIn,Conditions,Clouds,dailyrainin,SolarRadiationWatts/m^2,SoftwareType,DateUTC
2013-10-21 00:01:00,40.0,28.0,-100.00,SE,137,2.0,3.0,63,0.00,,,0.00,0.000000,,2013-10-21 04:01:00,
2013-10-21 00:44:00,40.0,28.0,-100.00,SE,137,2.0,3.0,63,0.00,,,0.00,0.000000,,2013-10-21 04:44:00,
2013-10-21 00:54:00,40.0,28.0,-100.00,SE,137,2.0,3.0,63,0.00,,,0.00,0.000000,,2013-10-21 04:54:00,
2013-10-21 01:01:00,38.0,31.0,-100.00,NE,43,3.0,3.0,75,0.00,,,0.00,0.000000,,2013-10-21 05:01:00,
2013-10-21 01:43:00,38.0,31.0,-100.00,NE,43,3.0,3.0,75,0.00,,,0.00,0.000000,,2013-10-21 05:43:00,
2013-10-21 01:52:00,38.0,31.0,-100.00,NE,43,3.0,3.0,75,0.00,,,0.00,0.000000,,2013-10-21 05:52:00,
2013-10-21 02:01:00,38.0,30.0,-100.00,NE,56,3.0,4.0,73,0.00,,,0.00,0.000000,,2013-10-21 06:01:00,
2013-10-21 02:42:00,38.0,30.0,-100.00,NE,56,3.0,4.0,73,0.00,,,0.00,0.000000,,2013-10-21 06:42:00,
2013-10-21 02:52:00,38.0,30.0,-100.00,NE,56,3.0,4.0,73,0.00,,,0.00,0.000000,,2013-10-21 06:52:00,
2013-10-21 03:01:00,37.0,30.0,-100.00,NE,46,4.0,5.0,76,0.00,,,0.00,0.000000,,2013-10-21 07:01:00,
2013-10-21 03:43:00,37.0,30.0,-100.00,NE,46,4.0,5.0,76,0.00,,,0.00,0.000000,,2013-10-21 07:43:00,
2013-10-21 03:52:00,37.0,30.0,-100.00,NE,46,4.0,5.0,76,0.00,,,0.00,0.000000,,2013-10-21 07:52:00,
2013-10-21 04:01:00,37.0,29.0,-100.00,NE,51,3.0,4.0,73,0.00,,,0.00,0.000000,,2013-10-21 08:01:00,
2013-10-21 04:22:00,37.0,29.0,-100.00,NE,51,3.0,4.0,73,0.00,,,0.00,0.000000,,2013-10-21 08:22:00,
2013-10-21 04:32:00,37.0,29.0,-100.00,NE,51,3.0,4.0,73,0.00,,,0.00,0.000000,,2013-10-21 08:32:00,
2013-10-21 04:42:00,37.0,29.0,-100.00,NE,51,3.0,4.0,73,0.00,,,0.00,0.000000,,2013-10-21 08:42:00,
2013-10-21 04:52:00,37.0,29.0,-100.00,NE,51,3.0,4.0,73,0.00,,,0.00,0.000000,,2013-10-21 08:52:00,
2013-10-21 05:01:00,36.0,30.0,-100.00,NE,44,3.0,4.0,80,0.00,,,0.00,0.000000,,2013-10-21 09:01:00,
2013-10-21 05:43:00,36.0,30.0,-100.00,NE,44,3.0,4.0,80,0.00,,,0.00,0.000000,,2013-10-21 09:43:00,
2013-10-21 05:54:00,36.0,30.0,-100.00,NE,44,3.0,4.0,80,0.00,,,0.00,0.000000,,2013-10-21 09:54:00,
2013-10-21 06:01:00,36.0,29.0,-100.00,NE,41,2.0,4.0,77,0.00,,,0.00,0.000000,,2013-10-21 10:01:00,
2013-10-21 06:43:00,36.0,29.0,-100.00,NE,41,2.0,4.0,77,0.00,,,0.00,0.000000,,2013-10-21 10:43:00,
2013-10-21 06:53:00,36.0,29.0,-100.00,NE,41,2.0,4.0,77,0.00,,,0.00,0.000000,,2013-10-21 10:53:00,
2013-10-21 07:01:00,36.0,29.0,-100.00,ENE,67,2.0,4.0,77,0.00,,,0.00,0.000000,,2013-10-21 11:01:00,
2013-10-21 07:42:00,36.0,29.0,-100.00,ENE,67,2.0,4.0,77,0.00,,,0.00,0.000000,,2013-10-21 11:42:00,
2013-10-21 07:52:00,36.0,29.0,-100.00,ENE,67,2.0,4.0,77,0.00,,,0.00,0.000000,,2013-10-21 11:52:00,
2013-10-21 08:01:00,35.0,31.0,-100.00,NE,43,3.0,4.0,85,0.00,,,0.00,5.000000,,2013-10-21 12:01:00,
2013-10-21 08:42:00,35.0,31.0,-100.00,NE,43,3.0,4.0,85,0.00,,,0.00,5.000000,,2013-10-21 12:42:00,
2013-10-21 08:52:00,35.0,31.0,-100.00,NE,43,3.0,4.0,85,0.00,,,0.00,5.000000,,2013-10-21 12:52:00,
2013-10-21 09:01:00,40.0,31.0,-100.00,NNE,31,2.0,4.0,70,0.00,,,0.00,95.000000,,2013-10-21 13:01:00,
2013-10-21 09:42:00,40.0,31.0,-100.00,NNE,31,2.0,4.0,70,0.00,,,0.00,95.000000,,2013-10-21 13:42:00,
2013-10-21 09:52:00,40.0,31.0,-100.00,NNE,31,2.0,4.0,70,0.00,,,0.00,95.000000,,2013-10-21 13:52:00,
2013-10-21 10:01:00,46.0,36.0,-100.00,SSW,211,5.0,6.0,67,0.00,,,0.00,328.000000,,2013-10-21 14:01:00,
2013-10-21 10:42:00,46.0,36.0,-100.00,SSW,211,5.0,6.0,67,0.00,,,0.00,328.000000,,2013-10-21 14:42:00,
2013-10-21 10:52:00,46.0,36.0,-100.00,SSW,211,5.0,6.0,67,0.00,,,0.00,328.000000,,2013-10-21 14:52:00,
2013-10-21 11:01:00,51.0,35.0,-100.00,SW,224,5.0,7.0,55,0.00,,,0.00,516.000000,,2013-10-21 15:01:00,
2013-10-21 11:43:00,51.0,35.0,-100.00,SW,224,5.0,7.0,55,0.00,,,0.00,516.000000,,2013-10-21 15:43:00,
2013-10-21 11:54:00,51.0,35.0,-100.00,SW,224,5.0,7.0,55,0.00,,,0.00,516.000000,,2013-10-21 15:54:00,
2013-10-21 12:01:00,57.0,38.0,-100.00,SW,224,6.0,9.0,49,0.00,,,0.00,661.000000,,2013-10-21 16:01:00,
2013-10-21 12:23:00,57.0,38.0,-100.00,SW,224,6.0,9.0,49,0.00,,,0.00,661.000000,,2013-10-21 16:23:00,
2013-10-21 12:33:00,57.0,38.0,-100.00,SW,224,6.0,9.0,49,0.00,,,0.00,661.000000,,2013-10-21 16:33:00,
2013-10-21 12:43:00,57.0,38.0,-100.00,SW,224,6.0,9.0,49,0.00,,,0.00,661.000000,,2013-10-21 16:43:00,
2013-10-21 12:54:00,57.0,38.0,-100.00,SW,224,6.0,9.0,49,0.00,,,0.00,661.000000,,2013-10-21 16:54:00,
2013-10-21 13:01:00,61.0,38.0,-100.00,SSW,203,6.0,9.0,43,0.00,,,0.00,751.000000,,2013-10-21 17:01:00,
2013-10-21 13:22:00,61.0,38.0,-100.00,SSW,203,6.0,9.0,43,0.00,,,0.00,751.000000,,2013-10-21 17:22:00,
2013-10-21 13:34:00,61.0,38.0,-100.00,SSW,203,6.0,9.0,43,0.00,,,0.00,751.000000,,2013-10-21 17:34:00,
2013-10-21 13:43:00,61.0,38.0,-100.00,SSW,203,6.0,9.0,43,0.00,,,0.00,751.000000,,2013-10-21 17:43:00,
2013-10-21 13:53:00,61.0,38.0,-100.00,SSW,203,6.0,9.0,43,0.00,,,0.00,751.000000,,2013-10-21 17:53:00,
2013-10-21 14:01:00,62.0,32.0,-100.00,SW,214,7.0,14.0,32,0.00,,,0.00,767.000000,,2013-10-21 18:01:00,
2013-10-21 14:42:00,62.0,32.0,-100.00,SW,214,7.0,14.0,32,0.00,,,0.00,767.000000,,2013-10-21 18:42:00,
2013-10-21 14:52:00,62.0,32.0,-100.00,SW,214,7.0,14.0,32,0.00,,,0.00,767.000000,,2013-10-21 18:52:00,
2013-10-21 15:01:00,64.0,27.0,-100.00,SSW,212,6.0,16.0,25,0.00,,,0.00,722.000000,,2013-10-21 19:01:00,
2013-10-21 15:42:00,64.0,27.0,-100.00,SSW,212,6.0,16.0,25,0.00,,,0.00,722.000000,,2013-10-21 19:42:00,
2013-10-21 15:52:00,64.0,27.0,-100.00,SSW,212,6.0,16.0,25,0.00,,,0.00,722.000000,,2013-10-21 19:52:00,
2013-10-21 17:01:00,63.0,32.0,-100.00,SSW,211,6.0,11.0,31,0.00,,,0.00,437.000000,,2013-10-21 21:01:00,
2013-10-21 17:44:00,63.0,32.0,-100.00,SSW,211,6.0,11.0,31,0.00,,,0.00,437.000000,,2013-10-21 21:44:00,
2013-10-21 17:54:00,63.0,32.0,-100.00,SSW,211,6.0,11.0,31,0.00,,,0.00,437.000000,,2013-10-21 21:54:00,
2013-10-21 18:01:00,59.0,33.0,-100.00,SW,217,5.0,11.0,37,0.00,,,0.00,230.000000,,2013-10-21 22:01:00,
2013-10-21 18:24:00,59.0,33.0,-100.00,SW,217,5.0,11.0,37,0.00,,,0.00,230.000000,,2013-10-21 22:24:00,
2013-10-21 18:34:00,59.0,33.0,-100.00,SW,217,5.0,11.0,37,0.00,,,0.00,230.000000,,2013-10-21 22:34:00,
2013-10-21 18:44:00,59.0,33.0,-100.00,SW,217,5.0,11.0,37,0.00,,,0.00,230.000000,,2013-10-21 22:44:00,
2013-10-21 18:54:00,59.0,33.0,-100.00,SW,217,5.0,11.0,37,0.00,,,0.00,230.000000,,2013-10-21 22:54:00,
2013-10-21 19:01:00,54.0,33.0,-100.00,SW,217,4.0,9.0,44,0.00,,,0.00,27.000000,,2013-10-21 23:01:00,
2013-10-21 19:22:00,54.0,33.0,-100.00,SW,217,4.0,9.0,44,0.00,,,0.00,27.000000,,2013-10-21 23:22:00,
2013-10-21 19:34:00,54.0,33.0,-100.00,SW,217,4.0,9.0,44,0.00,,,0.00,27.000000,,2013-10-21 23:34:00,
2013-10-21 19:42:00,54.0,33.0,-100.00,SW,217,4.0,9.0,44,0.00,,,0.00,27.000000,,2013-10-21 23:42:00,
2013-10-21 19:53:00,54.0,33.0,-100.00,SW,217,4.0,9.0,44,0.00,,,0.00,27.000000,,2013-10-21 23:53:00,
2013-10-21 20:01:00,53.0,33.0,-100.00,SSW,197,4.0,7.0,47,0.00,,,0.00,0.000000,,2013-10-22 00:01:00,
2013-10-21 20:22:00,53.0,33.0,-100.00,SSW,197,4.0,7.0,47,0.00,,,0.00,0.000000,,2013-10-22 00:22:00,
2013-10-21 20:32:00,53.0,33.0,-100.00,SSW,197,4.0,7.0,47,0.00,,,0.00,0.000000,,2013-10-22 00:32:00,
2013-10-21 20:42:00,53.0,33.0,-100.00,SSW,197,4.0,7.0,47,0.00,,,0.00,0.000000,,2013-10-22 00:42:00,
2013-10-21 20:53:00,53.0,33.0,-100.00,SSW,197,4.0,7.0,47,0.00,,,0.00,0.000000,,2013-10-22 00:53:00,
2013-10-21 21:01:00,51.0,38.0,-100.00,SSW,200,4.0,7.0,60,0.00,,,0.00,0.000000,,2013-10-22 01:01:00,
2013-10-21 21:42:00,51.0,38.0,-100.00,SSW,200,4.0,7.0,60,0.00,,,0.00,0.000000,,2013-10-22 01:42:00,
2013-10-21 21:53:00,51.0,38.0,-100.00,SSW,200,4.0,7.0,60,0.00,,,0.00,0.000000,,2013-10-22 01:53:00,
2013-10-21 22:01:00,50.0,39.0,-100.00,SSW,203,5.0,8.0,66,0.00,,,0.00,0.000000,,2013-10-22 02:01:00,
2013-10-21 22:43:00,50.0,39.0,-100.00,SSW,203,5.0,8.0,66,0.00,,,0.00,0.000000,,2013-10-22 02:43:00,
2013-10-21 22:52:00,50.0,39.0,-100.00,SSW,203,5.0,8.0,66,0.00,,,0.00,0.000000,,2013-10-22 02:52:00,
2013-10-21 23:01:00,50.0,40.0,-100.00,SSW,205,5.0,8.0,68,0.00,,,0.00,0.000000,,2013-10-22 03:01:00,
2013-10-21 23:45:00,50.0,40.0,-100.00,SSW,205,5.0,8.0,68,0.00,,,0.00,0.000000,,2013-10-22 03:45:00,
2013-10-21 23:55:00,50.0,40.0,-100.00,SSW,205,5.0,8.0,68,0.00,,,0.00,0.000000,,2013-10-22 03:55:00,